createdAt,value
2019-03-21T00:01:25.390Z,18.17
2019-03-21T00:03:58.170Z,16.30
2019-03-21T00:06:27.695Z,16.73
2019-03-21T00:08:57.261Z,17.03
2019-03-21T00:11:55.665Z,16.20
2019-03-21T00:14:32.441Z,15.70
2019-03-21T00:17:04.313Z,16.63
2019-03-21T00:19:33.609Z,16.67
2019-03-21T00:22:02.910Z,16.27
2019-03-21T00:24:32.411Z,15.50
2019-03-21T00:27:01.817Z,16.70
2019-03-21T00:29:31.123Z,16.17
2019-03-21T00:32:00.619Z,16.00
2019-03-21T00:34:30.161Z,15.43
2019-03-21T00:36:59.436Z,16.67
2019-03-21T00:39:32.803Z,15.73
2019-03-21T00:41:59.473Z,14.13
2019-03-21T00:44:28.870Z,15.83
2019-03-21T00:46:58.178Z,15.50
2019-03-21T00:49:27.480Z,15.27
2019-03-21T00:51:57.140Z,15.70
2019-03-21T00:54:26.600Z,16.00
2019-03-21T00:56:55.786Z,14.67
2019-03-21T00:59:25.325Z,14.03
2019-03-21T01:01:54.796Z,15.10
2019-03-21T01:04:26.923Z,15.03
2019-03-21T01:06:56.486Z,15.30
2019-03-21T01:09:25.886Z,14.50
2019-03-21T01:11:55.382Z,14.57
2019-03-21T01:14:29.663Z,15.13
2019-03-21T01:16:55.889Z,15.47
2019-03-21T01:19:25.343Z,14.77
2019-03-21T01:21:54.861Z,14.23
2019-03-21T01:24:45.043Z,15.27
2019-03-21T01:27:14.446Z,14.73
2019-03-21T01:29:44.352Z,14.90
2019-03-21T01:32:14.022Z,15.30
2019-03-21T01:34:43.473Z,15.67
2019-03-21T01:37:12.779Z,15.83
2019-03-21T01:39:42.086Z,14.80
2019-03-21T01:42:11.282Z,15.83
2019-03-21T01:44:41.418Z,15.73
2019-03-21T01:47:11.214Z,14.90
2019-03-21T01:49:40.625Z,15.50
2019-03-21T01:52:10.219Z,14.80
2019-03-21T01:54:39.429Z,15.53
2019-03-21T01:57:08.831Z,14.27
2019-03-21T01:59:38.331Z,14.80
2019-03-21T02:02:07.743Z,14.50
2019-03-21T02:04:36.943Z,14.47
2019-03-21T02:07:06.438Z,15.37
2019-03-21T02:09:35.947Z,14.53
2019-03-21T02:12:05.356Z,15.03
2019-03-21T02:14:34.657Z,14.73
2019-03-21T02:17:04.482Z,13.27
2019-03-21T02:19:33.670Z,14.23
2019-03-21T02:22:03.080Z,14.33
2019-03-21T02:24:32.574Z,14.67
2019-03-21T02:27:03.790Z,14.97
2019-03-21T02:29:33.018Z,14.17
2019-03-21T02:32:02.960Z,13.70
2019-03-21T02:34:32.448Z,14.60
2019-03-21T02:37:01.852Z,14.37
2019-03-21T02:39:31.243Z,15.37
2019-03-21T02:42:00.664Z,15.03
2019-03-21T02:44:29.971Z,14.77
2019-03-21T02:46:59.465Z,15.37
2019-03-21T02:49:28.874Z,14.33
2019-03-21T02:51:58.279Z,14.87
2019-03-21T02:54:27.667Z,14.07
2019-03-21T02:56:56.981Z,15.40
2019-03-21T02:59:26.186Z,15.57
2019-03-21T03:01:55.674Z,14.37
2019-03-21T03:04:25.204Z,14.80
2019-03-21T03:06:54.406Z,14.97
2019-03-21T03:09:23.695Z,15.13
2019-03-21T03:11:53.192Z,14.77
2019-03-21T03:14:22.400Z,14.63
2019-03-21T03:16:51.897Z,15.37
2019-03-21T03:19:22.237Z,14.87
2019-03-21T03:22:05.006Z,14.43
2019-03-21T03:24:34.686Z,15.00
2019-03-21T03:27:04.372Z,14.67
2019-03-21T03:29:33.867Z,14.93
2019-03-21T03:32:03.613Z,14.73
2019-03-21T03:34:32.999Z,13.90
2019-03-21T03:37:02.492Z,14.87
2019-03-21T03:39:31.996Z,14.77
2019-03-21T03:42:01.210Z,14.70
2019-03-21T03:44:30.714Z,14.80
2019-03-21T03:46:59.914Z,14.30
2019-03-21T03:49:29.109Z,14.40
2019-03-21T03:51:58.909Z,15.20
2019-03-21T03:54:28.430Z,13.67
2019-03-21T03:56:57.831Z,13.60
2019-03-21T03:59:27.329Z,13.37
2019-03-21T04:01:56.837Z,14.40
2019-03-21T04:04:26.453Z,14.63
2019-03-21T04:06:58.824Z,13.37
2019-03-21T04:09:28.424Z,14.53
2019-03-21T04:11:57.838Z,14.87
2019-03-21T04:14:27.245Z,14.23
2019-03-21T04:16:56.750Z,15.50
2019-03-21T04:19:26.065Z,14.17
2019-03-21T04:21:55.576Z,14.67
2019-03-21T04:24:25.167Z,14.63
2019-03-21T04:26:54.663Z,15.43
2019-03-21T04:29:24.377Z,15.07
2019-03-21T04:31:53.931Z,15.07
2019-03-21T04:34:23.968Z,15.23
2019-03-21T04:36:53.513Z,13.57
2019-03-21T04:39:23.219Z,13.40
2019-03-21T04:41:52.633Z,13.93
2019-03-21T04:44:22.855Z,13.73
2019-03-21T04:46:52.263Z,14.23
2019-03-21T04:49:22.064Z,13.73
2019-03-21T04:51:51.674Z,14.33
2019-03-21T04:54:20.894Z,13.27
2019-03-21T04:56:50.080Z,14.20
2019-03-21T04:59:19.899Z,14.77
2019-03-21T05:01:58.513Z,14.40
2019-03-21T05:04:28.014Z,12.93
2019-03-21T05:06:57.219Z,14.00
2019-03-21T05:09:26.418Z,13.67
2019-03-21T05:11:55.910Z,15.13
2019-03-21T05:14:25.224Z,13.70
2019-03-21T05:17:17.357Z,13.53
2019-03-21T05:19:46.563Z,12.83
2019-03-21T05:22:16.061Z,14.80
2019-03-21T05:24:45.368Z,14.57
2019-03-21T05:27:16.812Z,13.23
2019-03-21T05:29:48.362Z,13.90
2019-03-21T05:32:17.984Z,13.23
2019-03-21T05:34:47.287Z,12.53
2019-03-21T05:37:16.781Z,13.47
2019-03-21T05:39:46.295Z,13.63
2019-03-21T05:42:16.114Z,12.47
2019-03-21T05:44:45.917Z,12.10
2019-03-21T05:47:15.420Z,12.17
2019-03-21T05:49:44.632Z,12.87
2019-03-21T05:52:14.035Z,12.37
2019-03-21T05:54:43.567Z,12.50
2019-03-21T05:57:13.046Z,12.47
2019-03-21T05:59:42.353Z,12.33
2019-03-21T06:02:11.845Z,12.67
2019-03-21T06:04:41.260Z,12.50
2019-03-21T06:07:16.429Z,12.10
2019-03-21T06:09:46.097Z,12.73
2019-03-21T06:12:15.518Z,11.70
2019-03-21T06:14:58.333Z,12.07
2019-03-21T06:17:28.342Z,11.33
2019-03-21T06:20:06.376Z,11.07
2019-03-21T06:22:58.419Z,11.13
2019-03-21T06:26:03.952Z,11.03
2019-03-21T06:28:33.568Z,10.77
2019-03-21T06:31:02.962Z,11.10
2019-03-21T06:33:32.367Z,11.23
2019-03-21T06:36:02.898Z,12.37
2019-03-21T06:38:32.405Z,13.37
2019-03-21T06:41:03.944Z,12.50
2019-03-21T06:43:33.359Z,11.37
2019-03-21T06:46:02.861Z,10.20
2019-03-21T06:48:32.169Z,10.87
2019-03-21T06:51:01.366Z,10.83
2019-03-21T06:53:30.665Z,11.37
2019-03-21T06:55:59.965Z,11.03
2019-03-21T06:58:29.216Z,11.27
2019-03-21T07:00:58.553Z,10.43
2019-03-21T07:03:28.176Z,10.03
2019-03-21T07:05:57.486Z,10.30
2019-03-21T07:08:27.350Z,11.57
2019-03-21T07:10:58.404Z,11.83
2019-03-21T07:13:28.044Z,11.70
2019-03-21T07:15:57.345Z,10.70
2019-03-21T07:18:26.733Z,11.73
2019-03-21T07:20:56.050Z,10.80
2019-03-21T07:23:25.250Z,11.33
2019-03-21T07:25:54.850Z,10.67
2019-03-21T07:28:24.160Z,10.33
2019-03-21T07:30:53.359Z,9.80
2019-03-21T07:33:22.858Z,11.33
2019-03-21T07:35:52.068Z,10.33
2019-03-21T07:38:21.568Z,11.43
2019-03-21T07:40:51.076Z,11.03
2019-03-21T07:43:22.271Z,10.60
2019-03-21T07:45:51.521Z,11.60
2019-03-21T07:48:20.824Z,11.53
2019-03-21T07:50:50.327Z,11.90
2019-03-21T07:53:22.143Z,12.33
2019-03-21T07:55:51.388Z,11.20
2019-03-21T07:58:20.592Z,10.67
2019-03-21T08:00:49.990Z,11.33
2019-03-21T08:03:19.300Z,12.30
2019-03-21T08:05:48.811Z,12.97
2019-03-21T08:08:19.833Z,12.83
2019-03-21T08:10:49.149Z,11.53
2019-03-21T08:13:18.646Z,12.03
2019-03-21T08:15:47.954Z,11.90
2019-03-21T08:18:17.156Z,11.90
2019-03-21T08:20:56.113Z,11.93
2019-03-21T08:23:17.600Z,11.03
2019-03-21T08:25:47.138Z,11.53
2019-03-21T08:28:16.657Z,11.53
2019-03-21T08:31:09.258Z,12.23
2019-03-21T08:33:38.762Z,11.67
2019-03-21T08:36:08.279Z,12.07
2019-03-21T08:38:37.582Z,12.97
2019-03-21T08:41:06.778Z,12.10
2019-03-21T08:43:36.188Z,10.90
2019-03-21T08:46:05.788Z,12.03
2019-03-21T08:48:34.987Z,11.90
2019-03-21T08:51:08.502Z,11.43
2019-03-21T08:53:35.325Z,10.73
2019-03-21T08:56:04.938Z,10.47
2019-03-21T08:58:34.138Z,11.17
2019-03-21T09:01:03.647Z,10.23
2019-03-21T09:03:33.155Z,9.97
2019-03-21T09:06:02.457Z,11.23
2019-03-21T09:08:32.067Z,10.13
2019-03-21T09:11:01.364Z,9.83
2019-03-21T09:13:30.874Z,12.33
2019-03-21T09:16:00.152Z,11.77
2019-03-21T09:18:29.669Z,10.90
2019-03-21T09:20:58.979Z,12.30
2019-03-21T09:23:28.282Z,11.50
2019-03-21T09:25:57.685Z,11.40
2019-03-21T09:28:26.992Z,10.73
2019-03-21T09:30:56.794Z,10.83
2019-03-21T09:33:26.294Z,11.50
2019-03-21T09:35:55.822Z,10.60
2019-03-21T09:38:25.115Z,11.30
2019-03-21T09:40:54.625Z,12.13
2019-03-21T09:43:23.928Z,11.30
2019-03-21T09:45:53.325Z,11.77
2019-03-21T09:48:22.628Z,13.40
2019-03-21T09:50:52.635Z,11.90
2019-03-21T09:53:22.054Z,11.37
2019-03-21T09:55:51.349Z,11.17
2019-03-21T09:58:20.551Z,15.33
2019-03-21T10:00:49.951Z,15.67
2019-03-21T10:03:19.353Z,14.10
2019-03-21T10:05:48.857Z,9.73
2019-03-21T10:08:18.373Z,11.73
2019-03-21T10:10:47.979Z,12.07
2019-03-21T10:13:17.476Z,12.93
2019-03-21T10:15:47.087Z,11.53
2019-03-21T10:18:16.295Z,10.97
2019-03-21T10:20:45.601Z,11.87
2019-03-21T10:23:14.793Z,9.77
2019-03-21T10:25:44.097Z,10.23
2019-03-21T10:28:13.604Z,10.60
2019-03-21T10:30:43.920Z,15.63
2019-03-21T10:33:14.686Z,13.27
2019-03-21T10:35:44.171Z,10.73
2019-03-21T10:38:13.804Z,13.77
2019-03-21T10:40:43.791Z,12.37
2019-03-21T10:43:13.290Z,11.07
2019-03-21T10:45:42.603Z,12.10
2019-03-21T10:48:12.010Z,8.83
2019-03-21T10:50:41.821Z,9.27
2019-03-21T10:53:11.368Z,9.60
2019-03-21T10:55:40.629Z,9.87
2019-03-21T10:58:10.330Z,9.03
2019-03-21T11:00:40.369Z,10.10
2019-03-21T11:03:10.086Z,11.00
2019-03-21T11:05:39.683Z,7.23
2019-03-21T11:08:08.878Z,12.10
2019-03-21T11:10:38.179Z,11.43
2019-03-21T11:13:07.583Z,11.03
2019-03-21T11:15:37.207Z,11.57
2019-03-21T11:18:08.751Z,11.77
2019-03-21T11:20:39.931Z,10.93
2019-03-21T11:23:10.630Z,11.40
2019-03-21T11:25:40.356Z,11.50
2019-03-21T11:28:10.251Z,11.70
2019-03-21T11:30:41.521Z,11.47
2019-03-21T11:33:11.115Z,11.17
2019-03-21T11:35:41.777Z,11.17
2019-03-21T11:38:11.556Z,11.87
2019-03-21T11:40:42.292Z,11.10
2019-03-21T11:43:11.893Z,13.13
2019-03-21T11:45:41.424Z,11.90
2019-03-21T11:48:10.998Z,11.80
2019-03-21T11:50:40.323Z,12.07
2019-03-21T11:53:09.814Z,12.87
2019-03-21T11:55:39.360Z,10.33
2019-03-21T11:58:08.933Z,13.33
2019-03-21T12:00:44.052Z,11.67
2019-03-21T12:03:09.687Z,12.83
2019-03-21T12:05:39.194Z,12.67
2019-03-21T12:08:08.808Z,12.80
2019-03-21T12:10:38.213Z,12.70
2019-03-21T12:13:26.893Z,24.07
2019-03-21T12:15:56.116Z,13.63
2019-03-21T12:18:25.704Z,15.53
2019-03-21T12:20:55.203Z,14.77
2019-03-21T12:23:24.685Z,14.20
2019-03-21T12:25:54.180Z,12.73
2019-03-21T12:28:23.730Z,14.67
2019-03-21T12:30:53.409Z,13.80
2019-03-21T12:33:22.815Z,14.30
2019-03-21T12:35:52.320Z,14.57
2019-03-21T12:38:22.263Z,13.80
2019-03-21T12:40:58.392Z,15.07
2019-03-21T12:43:27.805Z,14.10
2019-03-21T12:45:57.107Z,14.53
2019-03-21T12:48:26.510Z,14.73
2019-03-21T12:50:56.011Z,15.57
2019-03-21T12:53:25.317Z,18.80
2019-03-21T12:55:54.965Z,17.20
2019-03-21T12:58:24.525Z,14.27
2019-03-21T13:00:54.132Z,14.30
2019-03-21T13:03:23.546Z,14.77
2019-03-21T13:05:53.046Z,13.63
2019-03-21T13:08:33.390Z,13.93
2019-03-21T13:10:53.499Z,13.47
2019-03-21T13:13:22.996Z,13.30
2019-03-21T13:15:52.305Z,13.33
2019-03-21T13:18:21.711Z,13.53
2019-03-21T13:20:51.210Z,14.20
2019-03-21T13:23:20.524Z,13.67
2019-03-21T13:25:49.930Z,13.73
2019-03-21T13:28:19.430Z,15.10
2019-03-21T13:30:48.759Z,12.27
2019-03-21T13:33:18.272Z,13.00
2019-03-21T13:35:47.735Z,12.90
2019-03-21T13:38:17.279Z,12.20
2019-03-21T13:40:46.534Z,25.93
2019-03-21T13:43:16.153Z,13.97
2019-03-21T13:45:45.669Z,13.87
2019-03-21T13:48:15.183Z,14.63
2019-03-21T13:50:44.371Z,13.40
2019-03-21T13:53:18.707Z,13.07
2019-03-21T13:55:44.390Z,14.80
2019-03-21T13:58:16.480Z,15.87
2019-03-21T14:00:45.978Z,15.50
2019-03-21T14:03:24.683Z,15.00
2019-03-21T14:05:46.530Z,14.10
2019-03-21T14:08:16.035Z,14.27
2019-03-21T14:10:46.243Z,16.60
2019-03-21T14:13:15.875Z,14.60
2019-03-21T14:15:47.010Z,16.10
2019-03-21T14:18:16.210Z,16.37
2019-03-21T14:20:45.716Z,13.97
2019-03-21T14:23:17.183Z,14.23
2019-03-21T14:25:46.181Z,16.23
2019-03-21T14:28:15.464Z,15.00
2019-03-21T14:30:45.077Z,15.33
2019-03-21T14:33:14.380Z,15.53
2019-03-21T14:35:43.888Z,13.20
2019-03-21T14:38:25.364Z,14.33
2019-03-21T14:40:44.833Z,14.53
2019-03-21T14:43:14.793Z,14.10
2019-03-21T14:45:47.336Z,14.63
2019-03-21T14:48:16.737Z,15.00
2019-03-21T14:50:45.940Z,15.10
2019-03-21T14:53:15.340Z,14.80
2019-03-21T14:55:47.673Z,16.50
2019-03-21T14:58:16.096Z,15.97
2019-03-21T15:00:46.660Z,15.83
2019-03-21T15:03:15.930Z,15.87
2019-03-21T15:05:45.448Z,13.40
2019-03-21T15:08:26.513Z,14.97
2019-03-21T15:10:56.120Z,13.97
2019-03-21T15:13:25.387Z,16.30
2019-03-21T15:15:55.248Z,15.77
2019-03-21T15:18:24.433Z,14.53
2019-03-21T15:20:54.259Z,15.47
2019-03-21T15:23:25.863Z,15.13
2019-03-21T15:25:54.820Z,15.20
2019-03-21T15:28:24.393Z,15.67
2019-03-21T15:30:53.718Z,16.37
2019-03-21T15:33:22.932Z,14.97
2019-03-21T15:35:52.437Z,13.83
2019-03-21T15:38:23.145Z,16.20
2019-03-21T15:40:52.856Z,14.10
2019-03-21T15:43:26.155Z,17.00
2019-03-21T15:45:55.751Z,14.83
2019-03-21T15:48:25.165Z,15.63
2019-03-21T15:51:03.890Z,15.93
2019-03-21T15:53:26.532Z,16.00
2019-03-21T15:55:56.168Z,15.77
2019-03-21T15:58:25.648Z,14.87
2019-03-21T16:00:55.635Z,14.03
2019-03-21T16:03:25.065Z,15.20
2019-03-21T16:05:54.378Z,15.73
2019-03-21T16:08:23.673Z,16.20
2019-03-21T16:10:53.077Z,16.03
2019-03-21T16:13:22.883Z,14.50
2019-03-21T16:15:52.505Z,14.43
2019-03-21T16:18:21.792Z,15.60
2019-03-21T16:20:51.299Z,16.37
2019-03-21T16:23:20.926Z,14.70
2019-03-21T16:25:50.103Z,14.73
2019-03-21T16:28:20.257Z,14.57
2019-03-21T16:30:50.069Z,16.73
2019-03-21T16:33:19.647Z,16.33
2019-03-21T16:35:49.168Z,15.37
2019-03-21T16:38:19.798Z,16.10
2019-03-21T16:40:49.300Z,15.03
2019-03-21T16:43:19.746Z,15.17
2019-03-21T16:45:49.357Z,14.83
2019-03-21T16:48:18.846Z,13.87
2019-03-21T16:50:48.255Z,13.97
2019-03-21T16:53:17.776Z,15.20
2019-03-21T16:55:47.470Z,15.20
2019-03-21T16:58:16.872Z,15.13
2019-03-21T17:00:46.386Z,15.27
2019-03-21T17:03:15.680Z,15.17
2019-03-21T17:05:44.889Z,17.63
2019-03-21T17:08:14.587Z,18.17
2019-03-21T17:10:44.155Z,17.20
2019-03-21T17:13:13.545Z,15.10
2019-03-21T17:15:42.805Z,15.93
2019-03-21T17:18:12.308Z,18.43
2019-03-21T17:20:41.812Z,17.43
2019-03-21T17:23:11.127Z,14.93
2019-03-21T17:25:40.543Z,15.73
2019-03-21T17:28:10.232Z,14.83
2019-03-21T17:30:39.535Z,15.83
2019-03-21T17:33:09.071Z,14.93
2019-03-21T17:35:38.342Z,15.50
2019-03-21T17:38:07.774Z,15.43
2019-03-21T17:40:37.152Z,15.87
2019-03-21T17:43:06.759Z,15.43
2019-03-21T17:45:36.469Z,15.50
2019-03-21T17:48:05.876Z,16.17
2019-03-21T17:50:37.005Z,15.63
2019-03-21T17:53:06.319Z,16.63
2019-03-21T17:55:36.430Z,15.50
2019-03-21T17:58:07.071Z,15.20
2019-03-21T18:00:37.192Z,15.87
2019-03-21T18:03:07.302Z,15.93
2019-03-21T18:05:37.074Z,15.50
2019-03-21T18:08:06.945Z,16.10
2019-03-21T18:10:36.345Z,16.57
2019-03-21T18:13:05.850Z,15.50
2019-03-21T18:15:35.157Z,15.97
2019-03-21T18:18:04.645Z,15.97
2019-03-21T18:20:33.858Z,16.60
2019-03-21T18:23:03.373Z,15.77
2019-03-21T18:25:32.771Z,16.37
2019-03-21T18:28:02.180Z,16.20
2019-03-21T18:30:46.732Z,16.17
2019-03-21T18:33:19.097Z,16.13
2019-03-21T18:35:50.249Z,16.47
2019-03-21T18:38:19.789Z,17.00
2019-03-21T18:40:50.114Z,16.93
2019-03-21T18:43:19.490Z,16.93
2019-03-21T18:45:48.998Z,17.30
2019-03-21T18:48:18.903Z,19.97
2019-03-21T18:50:48.421Z,17.57
2019-03-21T18:53:18.472Z,16.70
2019-03-21T18:55:48.045Z,17.30
2019-03-21T18:58:17.561Z,17.57
2019-03-21T19:00:46.940Z,17.37
2019-03-21T19:03:17.765Z,17.67
2019-03-21T19:05:47.300Z,17.60
2019-03-21T19:08:16.703Z,17.63
2019-03-21T19:10:47.744Z,17.33
2019-03-21T19:13:17.253Z,17.57
2019-03-21T19:15:47.087Z,17.87
2019-03-21T19:18:16.405Z,18.63
2019-03-21T19:20:45.511Z,18.83
2019-03-21T19:23:15.777Z,18.97
2019-03-21T19:25:45.600Z,19.47
2019-03-21T19:28:17.238Z,18.80
2019-03-21T19:30:52.281Z,19.13
2019-03-21T19:33:22.952Z,19.17
2019-03-21T19:35:53.661Z,19.27
2019-03-21T19:38:25.533Z,20.80
2019-03-21T19:41:05.269Z,21.37
2019-03-21T19:43:41.748Z,20.47
2019-03-21T19:46:11.355Z,19.70
2019-03-21T19:48:49.793Z,20.90
2019-03-21T19:51:11.791Z,19.80
2019-03-21T19:53:44.780Z,20.40
2019-03-21T19:56:14.299Z,20.33
2019-03-21T19:58:43.681Z,19.27
2019-03-21T20:01:14.223Z,19.53
2019-03-21T20:03:44.927Z,19.00
2019-03-21T20:06:14.455Z,18.50
2019-03-21T20:08:43.966Z,19.07
2019-03-21T20:11:13.273Z,19.30
2019-03-21T20:13:42.570Z,19.83
2019-03-21T20:16:11.976Z,19.97
2019-03-21T20:18:41.278Z,19.77
2019-03-21T20:21:10.512Z,19.70
2019-03-21T20:23:39.977Z,19.57
2019-03-21T20:26:09.228Z,20.60
2019-03-21T20:28:38.595Z,20.10
2019-03-21T20:31:07.887Z,21.30
2019-03-21T20:33:37.302Z,20.20
2019-03-21T20:36:21.133Z,19.73
2019-03-21T20:38:50.627Z,20.40
2019-03-21T20:41:20.045Z,20.80
2019-03-21T20:43:49.538Z,21.33
2019-03-21T20:46:18.955Z,21.63
2019-03-21T20:48:46.824Z,20.87
2019-03-21T20:51:16.112Z,20.67
2019-03-21T20:53:45.645Z,19.77
2019-03-21T20:56:15.143Z,19.90
2019-03-21T20:58:44.444Z,18.67
2019-03-21T21:01:14.045Z,19.73
2019-03-21T21:03:43.443Z,20.87
2019-03-21T21:06:15.003Z,19.93
2019-03-21T21:08:44.209Z,20.70
2019-03-21T21:11:13.717Z,19.43
2019-03-21T21:13:45.065Z,19.27
2019-03-21T21:16:18.461Z,19.77
2019-03-21T21:18:47.662Z,20.97
2019-03-21T21:21:17.165Z,19.83
2019-03-21T21:23:47.491Z,20.50
2019-03-21T21:26:21.911Z,20.40
2019-03-21T21:28:51.216Z,20.97
2019-03-21T21:31:20.720Z,19.80
2019-03-21T21:33:50.128Z,19.57
2019-03-21T21:36:22.151Z,21.50
2019-03-21T21:38:50.873Z,20.07
2019-03-21T21:41:20.387Z,19.47
2019-03-21T21:43:49.685Z,18.60
2019-03-21T21:46:18.886Z,19.40
2019-03-21T21:48:48.681Z,19.57
2019-03-21T21:51:17.999Z,18.83
2019-03-21T21:53:58.261Z,19.80
2019-03-21T21:56:27.459Z,21.03
2019-03-21T21:58:56.759Z,19.50
2019-03-21T22:01:26.458Z,23.73
2019-03-21T22:04:04.526Z,24.07
2019-03-21T22:06:26.610Z,23.53
2019-03-21T22:08:55.806Z,23.40
2019-03-21T22:11:25.202Z,24.03
2019-03-21T22:13:54.715Z,22.73
2019-03-21T22:16:23.916Z,22.67
2019-03-21T22:18:53.526Z,23.17
2019-03-21T22:21:23.029Z,21.33
2019-03-21T22:24:06.040Z,22.77
2019-03-21T22:26:43.445Z,21.97
2019-03-21T22:29:14.891Z,21.67
2019-03-21T22:31:44.096Z,21.27
2019-03-21T22:34:13.478Z,22.23
2019-03-21T22:36:49.413Z,21.37
2019-03-21T22:39:13.746Z,22.83
2019-03-21T22:41:43.239Z,21.17
2019-03-21T22:44:12.458Z,21.53
2019-03-21T22:46:41.749Z,21.50
2019-03-21T22:49:11.049Z,21.93
2019-03-21T22:51:40.581Z,20.80
2019-03-21T22:54:10.007Z,20.30
2019-03-21T22:56:41.582Z,22.03
2019-03-21T22:59:10.402Z,20.97
2019-03-21T23:01:40.002Z,21.47
2019-03-21T23:04:09.512Z,20.83
2019-03-21T23:06:38.722Z,20.77
2019-03-21T23:09:08.528Z,20.70
2019-03-21T23:11:37.837Z,21.93
2019-03-21T23:14:07.137Z,20.53
2019-03-21T23:16:36.546Z,21.53
2019-03-21T23:19:06.252Z,19.90
2019-03-21T23:21:35.556Z,21.27
2019-03-21T23:24:04.856Z,21.30
2019-03-21T23:26:34.158Z,21.20
2019-03-21T23:29:03.561Z,20.43
2019-03-21T23:31:38.815Z,20.57
2019-03-21T23:34:08.209Z,22.10
2019-03-21T23:36:37.403Z,20.67
2019-03-21T23:39:07.304Z,20.93
2019-03-21T23:41:36.523Z,20.67
2019-03-21T23:44:05.820Z,20.13
2019-03-21T23:46:35.326Z,19.83
2019-03-21T23:49:04.924Z,19.83
2019-03-21T23:51:34.238Z,20.30
2019-03-21T23:54:03.435Z,19.90
2019-03-21T23:56:32.738Z,20.77
2019-03-21T23:59:02.142Z,21.03
